Aviation Digital Data Service (ADDS)

Output produced by METARs form (0434 UTC 03 September 2014)
found at http://aviationweather.gov/adds/metars/
 
KARA 030353Z AUTO 12005KT 10SM CLR 26/23 A3001 RMK AO2 SLP163 T02560228